Time;durP1;ratioP1;P1;durP2;ratioP2;P2;SDS_P1;SDS_P2;PMS_P1;PMS_P2;Temp;Humidity;BMP_temperature;BMP_pressure;BME280_temperature;BME280_humidity;BME280_pressure;Samples;Min_cycle;Max_cycle;Signal;HPM_P1;HPM_P2
2023/08/23 00:00:23;;;;;;;5.43;3.90;;;;;;;;;;5033715;28;20281;-50
2023/08/23 00:02:49;;;;;;;5.33;3.90;;;;;;;;;;5033329;28;20201;-51
2023/08/23 00:05:16;;;;;;;6.40;4.30;;;;;;;;;;5032767;28;20609;-50
2023/08/23 00:07:42;;;;;;;5.07;3.97;;;;;;;;;;5029285;28;20271;-50
2023/08/23 00:10:10;;;;;;;3.90;3.60;;;;;;;;;;5033318;28;20202;-48
2023/08/23 00:12:36;;;;;;;4.00;3.70;;;;;;;;;;5033009;28;20201;-51
2023/08/23 00:15:02;;;;;;;4.30;3.63;;;;;;;;;;5033092;28;20260;-52
2023/08/23 00:17:28;;;;;;;4.90;4.40;;;;;;;;;;5033197;28;20192;-51
2023/08/23 00:19:54;;;;;;;7.80;3.90;;;;;;;;;;5015475;28;20220;-51
2023/08/23 00:22:20;;;;;;;4.83;3.97;;;;;;;;;;5033114;28;20223;-49
2023/08/23 00:24:46;;;;;;;4.60;4.20;;;;;;;;;;5032932;28;20224;-49
2023/08/23 00:27:13;;;;;;;4.70;4.30;;;;;;;;;;5032691;28;20766;-50
2023/08/23 00:29:39;;;;;;;5.10;4.10;;;;;;;;;;5032921;28;20295;-52
2023/08/23 00:32:05;;;;;;;4.30;3.90;;;;;;;;;;5032792;28;20237;-52
2023/08/23 00:34:31;;;;;;;4.40;4.00;;;;;;;;;;5032742;28;20193;-51
2023/08/23 00:36:57;;;;;;;4.10;3.67;;;;;;;;;;5032718;28;20193;-51
2023/08/23 00:39:24;;;;;;;5.13;4.37;;;;;;;;;;5032920;28;20193;-51
2023/08/23 00:41:50;;;;;;;4.00;3.70;;;;;;;;;;5032439;28;20297;-52
2023/08/23 00:44:17;;;;;;;4.40;4.00;;;;;;;;;;5032294;28;20316;-52
2023/08/23 00:46:43;;;;;;;4.40;4.00;;;;;;;;;;5032424;28;20284;-51
2023/08/23 00:49:09;;;;;;;4.17;3.77;;;;;;;;;;5032521;28;20726;-51
2023/08/23 00:51:35;;;;;;;4.53;4.07;;;;;;;;;;5032402;28;20292;-51
2023/08/23 00:54:02;;;;;;;5.97;4.17;;;;;;;;;;5032335;28;20236;-51
2023/08/23 00:56:28;;;;;;;5.57;4.07;;;;;;;;;;5032340;28;20673;-51
2023/08/23 00:58:54;;;;;;;5.07;4.57;;;;;;;;;;5032458;28;20208;-51
2023/08/23 01:01:21;;;;;;;6.33;4.17;;;;;;;;;;5032202;28;20283;-51
2023/08/23 01:03:49;;;;;;;4.67;4.27;;;;;;;;;;5032195;28;20213;-51
2023/08/23 01:06:23;;;;;;;4.97;3.93;;;;;;;;;;5032168;28;20224;-51
2023/08/23 01:08:54;;;;;;;4.00;3.70;;;;;;;;;;5031947;28;20634;-51
2023/08/23 01:11:24;;;;;;;5.00;3.73;;;;;;;;;;5032122;28;20200;-52
2023/08/23 01:13:53;;;;;;;4.77;3.90;;;;;;;;;;5031846;28;20205;-51
2023/08/23 01:16:20;;;;;;;4.27;3.50;;;;;;;;;;5031987;28;20255;-51
2023/08/23 01:18:47;;;;;;;4.77;3.73;;;;;;;;;;5032144;28;20197;-51
2023/08/23 01:21:15;;;;;;;6.17;3.53;;;;;;;;;;5031907;28;20200;-51
2023/08/23 01:23:44;;;;;;;5.20;3.67;;;;;;;;;;5031979;28;20212;-51
2023/08/23 01:26:10;;;;;;;3.83;3.53;;;;;;;;;;5031955;28;20215;-51
2023/08/23 01:28:36;;;;;;;4.67;3.60;;;;;;;;;;5031637;28;20221;-51
2023/08/23 01:31:04;;;;;;;4.83;3.63;;;;;;;;;;5031513;28;20201;-51
2023/08/23 01:33:33;;;;;;;3.67;3.30;;;;;;;;;;5031637;28;20703;-51
2023/08/23 01:36:01;;;;;;;3.70;3.40;;;;;;;;;;5031539;28;20254;-51
2023/08/23 01:38:27;;;;;;;3.63;3.30;;;;;;;;;;5031670;28;20205;-51
2023/08/23 01:40:55;;;;;;;3.67;3.37;;;;;;;;;;5031396;28;20201;-51
2023/08/23 01:43:21;;;;;;;4.10;3.70;;;;;;;;;;5031401;28;20225;-50
2023/08/23 01:45:47;;;;;;;4.63;3.77;;;;;;;;;;5031077;28;20240;-51
2023/08/23 01:48:13;;;;;;;4.40;4.00;;;;;;;;;;5031331;28;20228;-51
2023/08/23 01:50:40;;;;;;;4.97;3.90;;;;;;;;;;5031138;28;20288;-51
2023/08/23 01:53:06;;;;;;;6.30;3.80;;;;;;;;;;5031216;28;20571;-51
2023/08/23 01:55:32;;;;;;;4.87;3.73;;;;;;;;;;5030471;28;20662;-51
2023/08/23 01:57:59;;;;;;;4.63;3.30;;;;;;;;;;5031096;28;20193;-51
2023/08/23 02:00:25;;;;;;;4.80;3.97;;;;;;;;;;5031222;28;20201;-51
2023/08/23 02:02:51;;;;;;;4.10;3.70;;;;;;;;;;5030990;28;20231;-51
2023/08/23 02:05:17;;;;;;;4.57;3.90;;;;;;;;;;5031246;28;20219;-51
2023/08/23 02:07:43;;;;;;;5.87;4.83;;;;;;;;;;5030734;28;20702;-51
2023/08/23 02:10:09;;;;;;;5.40;4.70;;;;;;;;;;5031208;28;20212;-51
2023/08/23 02:12:35;;;;;;;5.30;4.70;;;;;;;;;;5030720;28;20624;-51
2023/08/23 02:15:03;;;;;;;6.80;6.10;;;;;;;;;;5030726;28;20715;-51
2023/08/23 02:17:29;;;;;;;7.10;6.40;;;;;;;;;;5030949;28;20197;-50
2023/08/23 02:19:55;;;;;;;7.10;6.00;;;;;;;;;;5030893;28;20205;-51
2023/08/23 02:22:21;;;;;;;6.50;5.90;;;;;;;;;;5030829;28;20746;-51
2023/08/23 02:24:47;;;;;;;8.07;5.27;;;;;;;;;;5030705;28;20813;-50
2023/08/23 02:27:13;;;;;;;9.50;6.00;;;;;;;;;;5030658;28;20237;-51
2023/08/23 02:29:39;;;;;;;5.40;4.90;;;;;;;;;;5030707;28;20216;-51
2023/08/23 02:32:06;;;;;;;6.67;5.97;;;;;;;;;;5030792;28;20208;-51
2023/08/23 02:34:32;;;;;;;6.33;5.83;;;;;;;;;;5030523;28;20213;-50
2023/08/23 02:36:58;;;;;;;6.53;5.70;;;;;;;;;;5030705;28;20243;-52
2023/08/23 02:39:24;;;;;;;7.00;6.30;;;;;;;;;;5030813;28;20446;-51
2023/08/23 02:41:50;;;;;;;8.83;6.03;;;;;;;;;;5030245;28;20663;-52
2023/08/23 02:44:16;;;;;;;7.27;6.53;;;;;;;;;;5030425;28;20287;-51
2023/08/23 02:46:42;;;;;;;7.87;6.73;;;;;;;;;;5030578;28;20196;-51
2023/08/23 02:49:10;;;;;;;6.40;5.80;;;;;;;;;;5030980;28;20254;-50
2023/08/23 02:51:36;;;;;;;7.13;6.43;;;;;;;;;;5030509;28;20207;-51
2023/08/23 02:54:02;;;;;;;6.83;6.23;;;;;;;;;;5030544;28;20922;-50
2023/08/23 02:56:28;;;;;;;7.60;6.43;;;;;;;;;;5030356;28;20204;-51
2023/08/23 02:58:54;;;;;;;8.73;7.10;;;;;;;;;;5030467;28;20192;-51
2023/08/23 03:01:20;;;;;;;7.77;7.17;;;;;;;;;;5030394;28;20243;-51
2023/08/23 03:03:47;;;;;;;8.90;8.10;;;;;;;;;;5030412;28;20201;-52
2023/08/23 03:06:14;;;;;;;7.33;6.70;;;;;;;;;;5030532;28;20208;-52
2023/08/23 03:08:40;;;;;;;7.33;6.63;;;;;;;;;;5033571;28;20257;-52
2023/08/23 03:11:07;;;;;;;7.93;5.60;;;;;;;;;;5034328;28;20224;-52
2023/08/23 03:13:33;;;;;;;6.23;5.63;;;;;;;;;;5034287;28;20636;-50
2023/08/23 03:15:59;;;;;;;7.10;5.80;;;;;;;;;;5034013;28;20284;-50
2023/08/23 03:18:25;;;;;;;6.90;6.30;;;;;;;;;;5034355;28;20195;-50
2023/08/23 03:20:51;;;;;;;9.17;7.30;;;;;;;;;;5034182;28;20201;-50
2023/08/23 03:23:19;;;;;;;7.80;7.00;;;;;;;;;;5034176;28;20197;-50
2023/08/23 03:25:45;;;;;;;6.93;6.33;;;;;;;;;;5033889;28;20227;-51
2023/08/23 03:28:12;;;;;;;8.07;6.80;;;;;;;;;;5034242;28;20252;-50
2023/08/23 03:30:38;;;;;;;8.53;7.47;;;;;;;;;;5034114;28;20201;-50
2023/08/23 03:33:05;;;;;;;8.17;7.47;;;;;;;;;;5033810;28;20185;-50
2023/08/23 03:35:31;;;;;;;8.03;7.33;;;;;;;;;;5033995;28;20209;-50
2023/08/23 03:37:57;;;;;;;8.10;7.30;;;;;;;;;;5033943;28;20255;-51
2023/08/23 03:40:25;;;;;;;7.70;7.00;;;;;;;;;;5034111;28;20203;-50
2023/08/23 03:42:51;;;;;;;8.70;7.83;;;;;;;;;;5033631;28;20248;-50
2023/08/23 03:45:17;;;;;;;10.50;7.37;;;;;;;;;;5033422;28;20236;-51
2023/08/23 03:47:43;;;;;;;8.03;7.33;;;;;;;;;;5033437;28;20224;-51
2023/08/23 03:50:10;;;;;;;11.33;9.53;;;;;;;;;;5033897;28;20259;-51
2023/08/23 03:52:36;;;;;;;9.83;9.03;;;;;;;;;;5033529;28;20643;-51
2023/08/23 03:55:02;;;;;;;12.30;9.37;;;;;;;;;;5033576;28;20208;-51
2023/08/23 03:57:29;;;;;;;9.83;7.20;;;;;;;;;;5033607;28;20203;-51
2023/08/23 03:59:55;;;;;;;8.20;7.50;;;;;;;;;;5033518;28;20287;-52
2023/08/23 04:02:21;;;;;;;8.97;8.17;;;;;;;;;;5033687;28;20339;-51
2023/08/23 04:04:48;;;;;;;10.03;8.50;;;;;;;;;;5033336;28;20224;-51
2023/08/23 04:07:14;;;;;;;9.07;8.13;;;;;;;;;;5033406;28;20217;-52
2023/08/23 04:09:40;;;;;;;8.90;8.00;;;;;;;;;;5033454;28;20250;-51
2023/08/23 04:12:07;;;;;;;8.90;8.10;;;;;;;;;;5033170;28;20233;-51
2023/08/23 04:14:35;;;;;;;7.80;7.00;;;;;;;;;;5033204;28;20199;-50
2023/08/23 04:17:01;;;;;;;8.00;7.20;;;;;;;;;;5033041;28;20263;-51
2023/08/23 04:19:27;;;;;;;8.37;7.57;;;;;;;;;;5032131;28;20559;-51
2023/08/23 04:21:53;;;;;;;9.23;8.37;;;;;;;;;;5033096;28;20243;-51
2023/08/23 04:24:20;;;;;;;11.77;7.70;;;;;;;;;;5033101;28;20200;-51
2023/08/23 04:26:46;;;;;;;11.03;9.93;;;;;;;;;;5032685;28;20208;-51
2023/08/23 04:29:12;;;;;;;11.80;10.60;;;;;;;;;;5032736;28;20626;-51
2023/08/23 04:31:40;;;;;;;12.70;11.37;;;;;;;;;;5033044;28;20262;-50
2023/08/23 04:34:06;;;;;;;12.90;10.40;;;;;;;;;;5032731;28;20295;-50
2023/08/23 04:36:32;;;;;;;10.10;9.10;;;;;;;;;;5032606;28;20279;-53
2023/08/23 04:38:58;;;;;;;10.70;9.70;;;;;;;;;;5032596;28;20205;-53
2023/08/23 04:41:24;;;;;;;10.13;9.23;;;;;;;;;;5032852;28;20196;-52
2023/08/23 04:43:50;;;;;;;10.00;9.10;;;;;;;;;;5032296;28;20228;-52
2023/08/23 04:46:16;;;;;;;9.43;8.63;;;;;;;;;;5032398;28;20197;-51
2023/08/23 04:48:44;;;;;;;9.23;8.30;;;;;;;;;;5032417;28;20275;-51
2023/08/23 04:51:10;;;;;;;8.43;7.63;;;;;;;;;;5032620;28;20211;-52
2023/08/23 04:53:36;;;;;;;8.93;8.03;;;;;;;;;;5032655;28;20205;-51
2023/08/23 04:56:03;;;;;;;9.80;8.67;;;;;;;;;;5031737;28;20211;-52
2023/08/23 04:58:32;;;;;;;9.10;8.20;;;;;;;;;;5032238;28;20279;-52
2023/08/23 05:00:59;;;;;;;8.83;8.03;;;;;;;;;;5032007;28;20197;-52
2023/08/23 05:03:25;;;;;;;9.23;8.43;;;;;;;;;;5032535;28;20280;-52
2023/08/23 05:05:53;;;;;;;8.70;7.60;;;;;;;;;;5031599;28;20433;-52
2023/08/23 05:08:19;;;;;;;9.13;8.43;;;;;;;;;;5032022;28;20228;-52
2023/08/23 05:10:45;;;;;;;9.23;8.23;;;;;;;;;;5031751;28;20197;-53
2023/08/23 05:13:11;;;;;;;9.97;8.80;;;;;;;;;;5032024;28;20758;-52
2023/08/23 05:15:37;;;;;;;10.47;9.53;;;;;;;;;;5031982;28;20292;-52
2023/08/23 05:18:03;;;;;;;9.87;9.07;;;;;;;;;;5031583;28;20191;-52
2023/08/23 05:20:29;;;;;;;12.40;11.20;;;;;;;;;;5031578;28;20681;-52
2023/08/23 05:22:56;;;;;;;10.30;9.30;;;;;;;;;;5031580;28;20193;-51
2023/08/23 05:25:22;;;;;;;9.50;8.70;;;;;;;;;;5031837;28;20201;-52
2023/08/23 05:27:48;;;;;;;10.40;9.30;;;;;;;;;;5031436;28;20244;-52
2023/08/23 05:30:14;;;;;;;8.97;8.10;;;;;;;;;;5030636;28;20275;-52
2023/08/23 05:32:40;;;;;;;9.17;8.37;;;;;;;;;;5013970;28;20293;-53
2023/08/23 05:35:07;;;;;;;12.47;11.27;;;;;;;;;;5031489;28;20209;-51
2023/08/23 05:37:33;;;;;;;12.97;11.87;;;;;;;;;;5031433;28;20211;-52
2023/08/23 05:40:01;;;;;;;11.47;10.33;;;;;;;;;;5031038;28;20197;-52
2023/08/23 05:42:27;;;;;;;12.43;11.17;;;;;;;;;;5031647;28;20225;-52
2023/08/23 05:44:53;;;;;;;11.83;10.63;;;;;;;;;;5030428;28;20236;-52
2023/08/23 05:47:19;;;;;;;12.53;11.23;;;;;;;;;;5030771;28;20224;-52
2023/08/23 05:49:45;;;;;;;14.63;12.17;;;;;;;;;;5031034;28;20586;-55
2023/08/23 05:52:11;;;;;;;12.17;10.97;;;;;;;;;;5031527;28;20201;-53
2023/08/23 05:54:37;;;;;;;13.77;10.73;;;;;;;;;;5031163;28;20203;-53
2023/08/23 05:57:05;;;;;;;12.03;10.60;;;;;;;;;;5031137;28;20259;-51
2023/08/23 05:59:31;;;;;;;13.63;12.23;;;;;;;;;;5031146;28;20209;-52
2023/08/23 06:01:57;;;;;;;13.97;12.53;;;;;;;;;;5031000;28;20225;-52
2023/08/23 06:04:23;;;;;;;14.73;12.87;;;;;;;;;;5031062;28;20255;-52
2023/08/23 06:06:49;;;;;;;13.13;12.03;;;;;;;;;;5031178;28;20189;-52
2023/08/23 06:09:15;;;;;;;14.37;12.17;;;;;;;;;;5030724;28;20629;-57
2023/08/23 06:11:41;;;;;;;13.70;12.40;;;;;;;;;;5030850;28;20205;-52
2023/08/23 06:14:18;;;;;;;12.97;11.67;;;;;;;;;;5030806;28;20204;-52
2023/08/23 06:16:44;;;;;;;11.30;10.20;;;;;;;;;;5030802;28;20205;-51
2023/08/23 06:19:11;;;;;;;12.90;11.50;;;;;;;;;;5030956;28;20200;-52
2023/08/23 06:21:37;;;;;;;13.70;12.20;;;;;;;;;;5031001;28;20203;-52
2023/08/23 06:24:04;;;;;;;18.07;10.93;;;;;;;;;;5030628;28;20303;-52
2023/08/23 06:26:30;;;;;;;12.37;10.93;;;;;;;;;;5030777;28;20201;-52
2023/08/23 06:28:56;;;;;;;10.97;9.53;;;;;;;;;;5030556;28;20753;-51
2023/08/23 06:31:23;;;;;;;9.90;8.90;;;;;;;;;;5030625;28;20665;-51
2023/08/23 06:33:49;;;;;;;11.20;10.00;;;;;;;;;;5030558;28;20239;-51
2023/08/23 06:36:15;;;;;;;11.47;9.37;;;;;;;;;;5030544;28;20259;-51
2023/08/23 06:38:41;;;;;;;12.60;9.30;;;;;;;;;;5030722;28;20280;-51
2023/08/23 06:41:07;;;;;;;17.07;11.80;;;;;;;;;;5030426;28;20232;-52
2023/08/23 06:43:33;;;;;;;13.73;11.97;;;;;;;;;;5030594;28;20582;-52
2023/08/23 06:46:01;;;;;;;10.40;9.27;;;;;;;;;;5030264;28;20718;-51
2023/08/23 06:48:28;;;;;;;17.07;12.33;;;;;;;;;;5030595;28;20264;-51
2023/08/23 06:50:54;;;;;;;14.10;10.33;;;;;;;;;;5030555;28;20197;-51
2023/08/23 06:53:20;;;;;;;22.27;11.77;;;;;;;;;;5030635;28;20196;-52
2023/08/23 06:55:46;;;;;;;16.57;10.23;;;;;;;;;;5028204;28;20196;-52
2023/08/23 06:58:12;;;;;;;20.83;13.10;;;;;;;;;;5030694;28;20232;-53
2023/08/23 07:00:38;;;;;;;17.47;11.10;;;;;;;;;;5030772;28;20228;-52
2023/08/23 07:03:05;;;;;;;15.17;10.00;;;;;;;;;;5030143;28;20196;-52
2023/08/23 07:05:34;;;;;;;22.10;12.27;;;;;;;;;;5030032;28;20197;-51
2023/08/23 07:08:01;;;;;;;13.20;11.03;;;;;;;;;;5029940;28;20231;-52
2023/08/23 07:10:27;;;;;;;12.80;10.07;;;;;;;;;;5030536;28;20394;-51
2023/08/23 07:12:53;;;;;;;15.43;9.83;;;;;;;;;;5030383;28;20260;-50
2023/08/23 07:15:19;;;;;;;17.00;12.00;;;;;;;;;;5030263;28;20198;-53
2023/08/23 07:17:45;;;;;;;11.07;9.77;;;;;;;;;;5029952;28;20199;-49
2023/08/23 07:20:13;;;;;;;11.70;10.50;;;;;;;;;;5030120;28;20251;-49
2023/08/23 07:22:40;;;;;;;19.33;11.97;;;;;;;;;;5027942;28;20196;-51
2023/08/23 07:25:07;;;;;;;14.90;10.80;;;;;;;;;;5029964;28;20714;-50
2023/08/23 07:27:33;;;;;;;15.83;10.47;;;;;;;;;;5029773;28;20890;-50
2023/08/23 07:30:00;;;;;;;17.07;10.33;;;;;;;;;;5029839;28;20197;-50
2023/08/23 07:32:30;;;;;;;13.33;9.40;;;;;;;;;;5030139;28;20271;-50
2023/08/23 07:34:56;;;;;;;17.27;10.80;;;;;;;;;;5029892;28;20204;-50
2023/08/23 07:37:22;;;;;;;12.07;9.03;;;;;;;;;;5029719;28;20205;-51
2023/08/23 07:39:50;;;;;;;14.63;9.93;;;;;;;;;;5029687;28;20204;-51
2023/08/23 07:42:16;;;;;;;16.17;11.60;;;;;;;;;;5029592;28;20252;-51
2023/08/23 07:44:42;;;;;;;13.50;9.70;;;;;;;;;;5029547;28;20717;-51
2023/08/23 07:47:08;;;;;;;13.23;10.27;;;;;;;;;;5029668;28;20292;-50
2023/08/23 07:49:34;;;;;;;14.10;10.33;;;;;;;;;;5029756;28;20201;-51
2023/08/23 07:52:00;;;;;;;12.27;8.73;;;;;;;;;;5029440;28;20205;-51
2023/08/23 07:54:26;;;;;;;13.20;9.33;;;;;;;;;;5032047;28;20200;-51
2023/08/23 07:56:53;;;;;;;12.43;8.50;;;;;;;;;;5033032;28;20243;-50
2023/08/23 07:59:19;;;;;;;9.17;6.87;;;;;;;;;;5033201;28;20264;-50
2023/08/23 08:01:45;;;;;;;8.73;6.10;;;;;;;;;;5033163;28;20775;-51
2023/08/23 08:04:11;;;;;;;9.43;7.67;;;;;;;;;;5031044;28;20201;-49
2023/08/23 08:06:39;;;;;;;10.07;7.20;;;;;;;;;;5031185;28;20227;-50
2023/08/23 08:09:05;;;;;;;8.40;7.03;;;;;;;;;;5032620;28;20312;-51
2023/08/23 08:11:31;;;;;;;14.13;9.63;;;;;;;;;;5032872;28;20221;-50
2023/08/23 08:13:58;;;;;;;10.87;6.93;;;;;;;;;;5032824;28;20203;-50
2023/08/23 08:16:24;;;;;;;9.03;7.20;;;;;;;;;;5033214;28;20215;-50
2023/08/23 08:18:50;;;;;;;9.63;6.20;;;;;;;;;;5032770;28;20646;-48
2023/08/23 08:21:19;;;;;;;12.53;7.60;;;;;;;;;;5032822;28;20226;-50
2023/08/23 08:23:46;;;;;;;7.57;5.00;;;;;;;;;;5032665;28;20214;-49
2023/08/23 08:26:13;;;;;;;10.67;7.07;;;;;;;;;;5032761;28;20232;-49
2023/08/23 08:28:42;;;;;;;9.03;5.50;;;;;;;;;;5032963;28;20240;-49
2023/08/23 08:31:10;;;;;;;8.03;5.70;;;;;;;;;;5032678;28;20208;-50
2023/08/23 08:33:36;;;;;;;8.63;6.60;;;;;;;;;;5032290;28;20202;-50
2023/08/23 08:36:02;;;;;;;9.57;7.57;;;;;;;;;;5032467;28;20218;-50
2023/08/23 08:38:28;;;;;;;11.57;7.43;;;;;;;;;;5031835;28;20198;-50
2023/08/23 08:40:54;;;;;;;19.80;8.20;;;;;;;;;;5032547;28;20207;-49
2023/08/23 08:43:21;;;;;;;7.63;5.87;;;;;;;;;;5032483;28;20600;-48
2023/08/23 08:45:47;;;;;;;7.97;5.23;;;;;;;;;;5032069;28;20239;-49
2023/08/23 08:48:15;;;;;;;6.50;5.07;;;;;;;;;;5032038;28;20241;-50
2023/08/23 08:50:42;;;;;;;9.50;5.57;;;;;;;;;;5032202;28;20769;-50
2023/08/23 08:53:10;;;;;;;12.10;5.93;;;;;;;;;;5032252;28;20283;-49
2023/08/23 08:55:36;;;;;;;6.53;5.80;;;;;;;;;;5032218;28;20200;-49
2023/08/23 08:58:03;;;;;;;7.83;4.73;;;;;;;;;;5031784;28;20212;-50
2023/08/23 09:00:29;;;;;;;9.47;6.10;;;;;;;;;;5032270;28;20339;-49
2023/08/23 09:02:57;;;;;;;6.10;4.77;;;;;;;;;;5031935;28;20200;-49
2023/08/23 09:05:24;;;;;;;11.80;10.00;;;;;;;;;;5033749;28;20200;-49
2023/08/23 09:07:51;;;;;;;8.60;5.50;;;;;;;;;;5051695;28;20221;-50
2023/08/23 09:10:17;;;;;;;7.13;4.97;;;;;;;;;;5051796;28;20200;-50
2023/08/23 09:12:43;;;;;;;8.73;5.97;;;;;;;;;;5051728;28;20612;-50
2023/08/23 09:15:09;;;;;;;9.20;5.53;;;;;;;;;;5051731;28;20282;-49
2023/08/23 09:17:36;;;;;;;7.63;6.43;;;;;;;;;;5051786;28;20192;-50
2023/08/23 09:20:05;;;;;;;6.97;4.40;;;;;;;;;;5051338;28;20254;-50
2023/08/23 09:22:35;;;;;;;8.83;5.53;;;;;;;;;;5051820;28;20298;-49
2023/08/23 09:25:01;;;;;;;6.97;4.77;;;;;;;;;;5051545;28;20279;-49
2023/08/23 09:27:27;;;;;;;7.27;5.57;;;;;;;;;;5051688;28;20192;-49
2023/08/23 09:29:54;;;;;;;8.20;4.07;;;;;;;;;;5051509;28;20203;-49
2023/08/23 09:32:20;;;;;;;9.87;5.10;;;;;;;;;;5051522;28;20678;-49
2023/08/23 09:34:46;;;;;;;6.67;4.60;;;;;;;;;;5051248;28;20231;-50
2023/08/23 09:37:12;;;;;;;7.03;3.17;;;;;;;;;;5051368;28;20207;-51
2023/08/23 09:39:42;;;;;;;6.50;3.80;;;;;;;;;;5051538;28;20196;-49
2023/08/23 09:42:13;;;;;;;5.40;3.20;;;;;;;;;;5050928;28;20239;-48
2023/08/23 09:44:40;;;;;;;4.60;3.50;;;;;;;;;;5051168;28;20243;-49
2023/08/23 09:47:09;;;;;;;3.93;3.10;;;;;;;;;;5050891;28;20194;-51
2023/08/23 09:49:36;;;;;;;6.13;3.30;;;;;;;;;;5051269;28;20230;-49
2023/08/23 09:52:03;;;;;;;5.57;2.73;;;;;;;;;;5050605;28;20209;-50
2023/08/23 09:54:32;;;;;;;3.70;2.30;;;;;;;;;;5051263;28;20208;-49
2023/08/23 09:57:00;;;;;;;4.90;2.20;;;;;;;;;;5051023;28;20203;-49
2023/08/23 09:59:26;;;;;;;2.97;2.10;;;;;;;;;;5050887;28;20655;-50
2023/08/23 10:01:52;;;;;;;4.53;2.80;;;;;;;;;;5050945;28;20258;-49
2023/08/23 10:04:18;;;;;;;5.47;3.20;;;;;;;;;;5051027;28;20296;-51
2023/08/23 10:06:45;;;;;;;6.63;2.80;;;;;;;;;;5050894;28;20286;-51
2023/08/23 10:09:12;;;;;;;4.97;3.70;;;;;;;;;;5034822;28;20235;-50
2023/08/23 10:11:38;;;;;;;5.63;3.87;;;;;;;;;;5031335;28;20195;-50
2023/08/23 10:14:07;;;;;;;3.90;2.43;;;;;;;;;;5030604;28;20207;-49
2023/08/23 10:16:34;;;;;;;4.27;2.43;;;;;;;;;;5030248;28;20681;-50
2023/08/23 10:19:00;;;;;;;4.87;2.90;;;;;;;;;;5030417;28;20200;-51
2023/08/23 10:21:26;;;;;;;4.00;2.23;;;;;;;;;;5030928;28;20235;-51
2023/08/23 10:23:53;;;;;;;4.47;2.33;;;;;;;;;;5030774;28;20201;-50
2023/08/23 10:26:19;;;;;;;4.93;3.50;;;;;;;;;;5030498;28;20279;-56
2023/08/23 10:28:49;;;;;;;5.50;3.87;;;;;;;;;;5030405;28;20236;-51
2023/08/23 10:31:21;;;;;;;7.30;3.43;;;;;;;;;;5030422;28;20259;-51
2023/08/23 10:33:54;;;;;;;4.33;2.63;;;;;;;;;;5030604;28;20197;-50
2023/08/23 10:36:21;;;;;;;3.87;2.37;;;;;;;;;;5030747;28;20213;-52
2023/08/23 10:38:47;;;;;;;6.33;3.07;;;;;;;;;;5030763;28;20201;-52
2023/08/23 10:41:17;;;;;;;7.07;2.97;;;;;;;;;;5030318;28;20203;-51
2023/08/23 10:43:43;;;;;;;6.73;3.57;;;;;;;;;;5030451;28;20220;-51
2023/08/23 10:46:09;;;;;;;3.90;2.70;;;;;;;;;;5030400;28;20572;-50
2023/08/23 10:48:37;;;;;;;4.03;2.37;;;;;;;;;;5030437;28;20239;-50
2023/08/23 10:51:03;;;;;;;6.20;2.87;;;;;;;;;;5030358;28;20236;-50
2023/08/23 10:53:30;;;;;;;3.93;2.10;;;;;;;;;;5012578;28;20234;-49
2023/08/23 10:56:00;;;;;;;4.10;2.30;;;;;;;;;;5030288;28;20207;-50
2023/08/23 10:58:26;;;;;;;6.87;2.33;;;;;;;;;;5030617;28;20613;-51
2023/08/23 11:00:53;;;;;;;3.70;1.80;;;;;;;;;;5030329;28;20199;-51
2023/08/23 11:03:22;;;;;;;4.10;2.37;;;;;;;;;;5029895;28;20234;-50
2023/08/23 11:05:50;;;;;;;3.83;2.53;;;;;;;;;;5030247;28;20194;-50
2023/08/23 11:08:16;;;;;;;4.27;2.40;;;;;;;;;;5022147;28;20553;-50
2023/08/23 11:10:42;;;;;;;4.13;2.40;;;;;;;;;;5030370;28;20203;-50
2023/08/23 11:13:08;;;;;;;5.27;2.30;;;;;;;;;;5030214;28;20199;-50
2023/08/23 11:15:34;;;;;;;3.50;2.87;;;;;;;;;;5030492;28;20285;-51
2023/08/23 11:18:01;;;;;;;4.70;2.60;;;;;;;;;;5029810;28;20754;-51
2023/08/23 11:20:28;;;;;;;3.13;2.20;;;;;;;;;;5030358;28;20236;-51
2023/08/23 11:22:55;;;;;;;4.27;2.00;;;;;;;;;;5030174;28;20221;-50
2023/08/23 11:25:21;;;;;;;4.13;1.70;;;;;;;;;;5028280;28;20549;-50
2023/08/23 11:27:47;;;;;;;3.60;1.60;;;;;;;;;;5028079;28;20382;-51
2023/08/23 11:30:13;;;;;;;2.97;1.80;;;;;;;;;;5033568;28;20660;-51
2023/08/23 11:32:39;;;;;;;3.17;1.77;;;;;;;;;;5033973;28;20206;-51
2023/08/23 11:35:06;;;;;;;5.60;1.90;;;;;;;;;;5033927;28;20193;-51
2023/08/23 11:37:32;;;;;;;2.97;1.50;;;;;;;;;;5034014;28;20201;-52
2023/08/23 11:40:00;;;;;;;2.63;1.80;;;;;;;;;;5033946;28;20585;-51
2023/08/23 11:42:27;;;;;;;5.30;2.17;;;;;;;;;;5034022;28;20224;-51
2023/08/23 11:44:54;;;;;;;3.33;2.00;;;;;;;;;;5033835;28;20256;-51
2023/08/23 11:47:23;;;;;;;3.17;1.70;;;;;;;;;;5033869;28;20211;-52
2023/08/23 11:49:50;;;;;;;1.90;1.70;;;;;;;;;;5033826;28;20268;-51
2023/08/23 11:52:17;;;;;;;3.77;1.73;;;;;;;;;;5016129;28;20548;-51
2023/08/23 11:54:43;;;;;;;2.20;1.50;;;;;;;;;;5033637;28;20943;-51
2023/08/23 11:57:14;;;;;;;3.07;1.60;;;;;;;;;;5033772;28;20262;-51
2023/08/23 11:59:40;;;;;;;5.17;2.80;;;;;;;;;;5033930;28;20204;-52
2023/08/23 12:02:07;;;;;;;3.10;2.13;;;;;;;;;;5033455;28;20256;-50
2023/08/23 12:04:33;;;;;;;5.23;1.93;;;;;;;;;;5033629;28;20668;-51
2023/08/23 12:06:59;;;;;;;4.10;2.07;;;;;;;;;;5033346;28;20202;-51
2023/08/23 12:09:25;;;;;;;3.20;1.63;;;;;;;;;;5033528;28;20233;-51
2023/08/23 12:11:52;;;;;;;3.90;1.90;;;;;;;;;;5033400;28;20205;-51
2023/08/23 12:14:20;;;;;;;1.80;1.40;;;;;;;;;;5033060;28;20670;-51
2023/08/23 12:16:46;;;;;;;3.63;1.63;;;;;;;;;;5032951;28;20825;-54
2023/08/23 12:19:12;;;;;;;2.90;1.67;;;;;;;;;;5033180;28;20235;-53
2023/08/23 12:21:38;;;;;;;3.73;2.00;;;;;;;;;;5033328;28;20290;-53
2023/08/23 12:24:04;;;;;;;3.03;1.50;;;;;;;;;;5032892;28;20210;-54
2023/08/23 12:26:30;;;;;;;5.37;1.70;;;;;;;;;;5033080;28;20207;-51
2023/08/23 12:28:56;;;;;;;2.07;1.40;;;;;;;;;;5032996;28;20317;-49
2023/08/23 12:31:23;;;;;;;1.53;1.40;;;;;;;;;;5032986;28;20268;-50
2023/08/23 12:33:49;;;;;;;3.83;1.53;;;;;;;;;;5032865;28;20238;-49
2023/08/23 12:36:15;;;;;;;2.37;1.53;;;;;;;;;;5032757;28;20199;-50
2023/08/23 12:38:42;;;;;;;2.63;1.97;;;;;;;;;;5032676;28;20199;-50
2023/08/23 12:41:08;;;;;;;2.40;1.23;;;;;;;;;;5032731;28;20657;-50
2023/08/23 12:43:34;;;;;;;4.07;1.47;;;;;;;;;;5032764;28;20230;-49
2023/08/23 12:46:00;;;;;;;1.80;1.30;;;;;;;;;;5032441;28;20246;-50
2023/08/23 12:48:28;;;;;;;1.40;1.03;;;;;;;;;;5032613;28;20232;-50
2023/08/23 12:50:54;;;;;;;2.63;1.60;;;;;;;;;;5032609;28;20211;-50
2023/08/23 12:53:20;;;;;;;2.63;1.50;;;;;;;;;;5031993;28;20211;-49
2023/08/23 12:55:49;;;;;;;3.37;1.67;;;;;;;;;;5032174;28;20598;-51
2023/08/23 12:58:15;;;;;;;2.33;1.50;;;;;;;;;;5032123;28;20210;-52
2023/08/23 13:00:41;;;;;;;2.23;1.33;;;;;;;;;;5032488;28;20205;-51
2023/08/23 13:03:07;;;;;;;1.77;1.40;;;;;;;;;;5032129;28;20188;-51
2023/08/23 13:05:35;;;;;;;3.30;1.40;;;;;;;;;;5031947;28;20582;-51
2023/08/23 13:08:01;;;;;;;1.87;1.23;;;;;;;;;;5031892;28;20220;-51
2023/08/23 13:10:27;;;;;;;3.50;1.30;;;;;;;;;;5032147;28;20254;-51
2023/08/23 13:12:53;;;;;;;3.70;1.40;;;;;;;;;;5032158;28;20204;-49
2023/08/23 13:15:19;;;;;;;1.63;1.30;;;;;;;;;;5031844;28;20240;-51
2023/08/23 13:17:46;;;;;;;1.90;1.33;;;;;;;;;;5032092;28;20227;-50
2023/08/23 13:20:12;;;;;;;2.00;1.50;;;;;;;;;;5031809;28;20203;-50
2023/08/23 13:22:40;;;;;;;2.20;1.63;;;;;;;;;;5031963;28;20197;-51
2023/08/23 13:25:06;;;;;;;7.63;1.87;;;;;;;;;;5031739;28;20208;-50
2023/08/23 13:27:33;;;;;;;7.93;2.00;;;;;;;;;;5031756;28;20207;-50
2023/08/23 13:29:59;;;;;;;3.23;1.53;;;;;;;;;;5031281;28;20315;-50
2023/08/23 13:32:25;;;;;;;3.87;1.60;;;;;;;;;;5031828;28;20672;-50
2023/08/23 13:34:51;;;;;;;4.07;2.30;;;;;;;;;;5031572;28;20712;-50
2023/08/23 13:37:17;;;;;;;2.40;1.67;;;;;;;;;;5031363;28;20201;-50
2023/08/23 13:39:45;;;;;;;2.30;1.30;;;;;;;;;;5031395;28;20198;-50
2023/08/23 13:42:11;;;;;;;1.60;1.30;;;;;;;;;;5031136;28;20255;-50
2023/08/23 13:44:37;;;;;;;2.03;1.60;;;;;;;;;;5031130;28;20230;-51
2023/08/23 13:47:03;;;;;;;1.80;1.50;;;;;;;;;;5031040;28;20208;-50
2023/08/23 13:49:29;;;;;;;3.10;1.50;;;;;;;;;;5031092;28;20241;-51
2023/08/23 13:51:55;;;;;;;2.73;1.50;;;;;;;;;;5030462;28;20261;-50
2023/08/23 13:54:21;;;;;;;2.07;1.30;;;;;;;;;;5030984;28;20202;-51
2023/08/23 13:56:49;;;;;;;1.80;1.40;;;;;;;;;;5030567;28;20249;-50
2023/08/23 13:59:17;;;;;;;2.93;1.30;;;;;;;;;;5030655;28;20252;-50
2023/08/23 14:01:43;;;;;;;3.17;1.40;;;;;;;;;;5030983;28;20206;-51
2023/08/23 14:04:09;;;;;;;1.77;1.67;;;;;;;;;;5030832;28;20224;-51
2023/08/23 14:06:35;;;;;;;2.70;1.40;;;;;;;;;;5030878;28;20250;-49
2023/08/23 14:09:01;;;;;;;2.67;2.20;;;;;;;;;;5030510;28;20233;-49
2023/08/23 14:11:34;;;;;;;3.40;1.60;;;;;;;;;;5030776;28;20205;-50
2023/08/23 14:14:01;;;;;;;4.77;1.43;;;;;;;;;;5030636;28;20262;-51
2023/08/23 14:16:27;;;;;;;2.30;1.20;;;;;;;;;;5030745;28;20229;-50
2023/08/23 14:18:53;;;;;;;2.50;1.43;;;;;;;;;;5030592;28;20650;-51
2023/08/23 14:21:19;;;;;;;4.17;1.70;;;;;;;;;;5030341;28;20207;-51
2023/08/23 14:23:45;;;;;;;2.13;1.27;;;;;;;;;;5030547;28;20265;-50
2023/08/23 14:26:11;;;;;;;2.20;1.43;;;;;;;;;;5030391;28;20215;-53
2023/08/23 14:28:38;;;;;;;2.80;1.33;;;;;;;;;;5030043;28;20688;-50
2023/08/23 14:31:05;;;;;;;3.43;1.40;;;;;;;;;;5030606;28;20253;-50
2023/08/23 14:33:31;;;;;;;2.57;1.37;;;;;;;;;;5030599;28;20384;-50